Arraial do Cabo, Brazil
Current Conditions -  °F | °C
As of 5:00 PM on Monday 20 Oct 2014 (Local Time) from SBCB Reporting Station
Broken Clouds Broken Clouds  
Wind Chill: 77°   Ceiling: 3000
Heat Index: 78°   Visibility: 5mi
Dew Point: 77°   Wind: 9mph
Humidity: 100%   Direction: 260°W
Pressure: 29.97"   Gusts: NA
Location:  22.97°S, 42.03°W
Report Text: SBCB 202000Z 26008KT 8000 SCT018 BKN030 25/25 Q1015
Loading
Personal Weather Stations






























Interactive Weather Map
Tropical Storm Tracking
New forecast layout! Learn more

10-Day Weather Forecast

Advertisements
Track Severe Weather on mobile